Time;durP1;ratioP1;P1;durP2;ratioP2;P2;SDS_P1;SDS_P2;PMS_P1;PMS_P2;Temp;Humidity;BMP_temperature;BMP_pressure;BME280_temperature;BME280_humidity;BME280_pressure;Samples;Min_cycle;Max_cycle;Signal;HPM_P1;HPM_P2
2021/12/14 00:02:22;;;;;;;50.35;20.23;;;;;;;;;;5015204;28;20440;-58
2021/12/14 00:04:48;;;;;;;59.47;20.15;;;;;;;;;;5010173;28;20128;-58
2021/12/14 00:07:16;;;;;;;45.40;19.80;;;;;;;;;;5010199;28;20044;-58
2021/12/14 00:09:43;;;;;;;42.55;18.27;;;;;;;;;;5008167;28;20469;-58
2021/12/14 00:15:06;;;;;;;50.53;19.83;;;;;;;;;;5012399;28;20036;-58
2021/12/14 00:17:48;;;;;;;44.05;18.63;;;;;;;;;;5009752;28;20103;-58
2021/12/14 00:20:23;;;;;;;53.38;18.88;;;;;;;;;;5009786;28;20021;-58
2021/12/14 00:25:28;;;;;;;58.17;21.52;;;;;;;;;;5013517;28;20045;-59
2021/12/14 00:27:56;;;;;;;56.95;20.65;;;;;;;;;;5012716;28;20045;-58
2021/12/14 00:30:21;;;;;;;56.80;21.40;;;;;;;;;;5008499;28;20224;-58
2021/12/14 00:32:47;;;;;;;50.67;20.17;;;;;;;;;;5016991;28;20275;-58
2021/12/14 00:35:13;;;;;;;61.42;21.58;;;;;;;;;;5008779;28;20033;-59
2021/12/14 00:37:49;;;;;;;59.20;20.67;;;;;;;;;;5013044;28;20044;-58
2021/12/14 00:40:21;;;;;;;53.67;22.95;;;;;;;;;;5010783;28;20026;-58
2021/12/14 00:42:47;;;;;;;53.45;19.00;;;;;;;;;;5016444;28;20807;-58
2021/12/14 00:45:14;;;;;;;70.85;22.63;;;;;;;;;;5011074;28;20493;-57
2021/12/14 00:47:40;;;;;;;52.58;20.10;;;;;;;;;;5008148;28;20570;-57
2021/12/14 00:50:08;;;;;;;54.88;20.88;;;;;;;;;;5008266;28;20104;-57
2021/12/14 00:52:34;;;;;;;51.13;20.00;;;;;;;;;;5012664;28;20447;-57
2021/12/14 00:55:00;;;;;;;55.55;19.67;;;;;;;;;;5009024;28;20488;-56
2021/12/14 00:57:26;;;;;;;55.90;20.25;;;;;;;;;;5005548;28;20151;-57
2021/12/14 00:59:51;;;;;;;57.63;20.70;;;;;;;;;;5011680;28;20045;-57
2021/12/14 01:02:21;;;;;;;49.70;19.50;;;;;;;;;;5035495;28;20359;-57
2021/12/14 01:04:54;;;;;;;58.55;20.25;;;;;;;;;;5030105;28;20063;-57
2021/12/14 01:07:24;;;;;;;53.08;19.50;;;;;;;;;;5030121;28;20125;-57
2021/12/14 01:09:56;;;;;;;49.40;17.65;;;;;;;;;;5030360;28;20485;-58
2021/12/14 01:12:48;;;;;;;48.20;19.08;;;;;;;;;;5031519;28;20068;-58
2021/12/14 01:15:32;;;;;;;41.20;18.23;;;;;;;;;;5028358;28;20082;-57
2021/12/14 01:18:27;;;;;;;42.92;18.80;;;;;;;;;;5047732;28;20055;-57
2021/12/14 01:20:59;;;;;;;49.33;18.27;;;;;;;;;;5027970;28;20025;-59
2021/12/14 01:23:34;;;;;;;54.20;18.52;;;;;;;;;;5031820;28;20462;-58
2021/12/14 01:26:08;;;;;;;42.35;16.92;;;;;;;;;;5031339;28;20391;-59
2021/12/14 01:28:35;;;;;;;49.55;17.98;;;;;;;;;;5032024;28;20029;-57
2021/12/14 01:31:20;;;;;;;48.38;18.77;;;;;;;;;;5034961;28;20075;-58
2021/12/14 01:33:49;;;;;;;41.83;17.85;;;;;;;;;;5031004;28;20032;-57
2021/12/14 01:36:31;;;;;;;43.80;16.20;;;;;;;;;;5036433;28;20127;-58
2021/12/14 01:41:50;;;;;;;71.28;20.05;;;;;;;;;;5032699;28;20418;-57
2021/12/14 01:44:16;;;;;;;60.40;19.17;;;;;;;;;;5035211;28;20033;-57
2021/12/14 01:46:52;;;;;;;55.42;21.40;;;;;;;;;;5037127;28;20024;-57
2021/12/14 01:49:18;;;;;;;54.90;17.92;;;;;;;;;;5031435;28;20029;-57
2021/12/14 01:51:48;;;;;;;48.17;17.23;;;;;;;;;;5035339;28;20033;-57
2021/12/14 01:54:17;;;;;;;47.80;16.95;;;;;;;;;;5030512;28;20065;-57
2021/12/14 01:56:43;;;;;;;61.05;18.88;;;;;;;;;;5038052;28;20051;-58
2021/12/14 01:59:23;;;;;;;44.83;18.05;;;;;;;;;;5035269;28;20492;-57
2021/12/14 02:01:57;;;;;;;48.92;19.45;;;;;;;;;;5034615;28;20082;-57
2021/12/14 02:04:27;;;;;;;47.60;18.17;;;;;;;;;;5033149;28;20662;-57
2021/12/14 02:06:56;;;;;;;46.30;17.10;;;;;;;;;;5037007;28;20021;-57
2021/12/14 02:09:27;;;;;;;48.22;17.95;;;;;;;;;;5029810;28;20040;-57
2021/12/14 02:11:57;;;;;;;62.72;18.98;;;;;;;;;;5035450;28;20036;-57
2021/12/14 02:14:24;;;;;;;51.53;18.48;;;;;;;;;;5034474;28;20040;-56
2021/12/14 02:16:54;;;;;;;45.17;18.35;;;;;;;;;;5031004;28;20071;-57
2021/12/14 02:19:20;;;;;;;45.20;16.73;;;;;;;;;;5034631;28;20496;-57
2021/12/14 02:21:48;;;;;;;49.30;16.35;;;;;;;;;;5031409;28;20492;-57
2021/12/14 02:24:19;;;;;;;48.50;17.10;;;;;;;;;;5040402;28;20420;-58
2021/12/14 02:26:46;;;;;;;43.15;16.13;;;;;;;;;;5033266;28;20483;-58
2021/12/14 02:29:27;;;;;;;43.20;16.08;;;;;;;;;;5035885;28;20191;-57
2021/12/14 02:31:59;;;;;;;47.50;16.85;;;;;;;;;;5033049;28;20021;-57
2021/12/14 02:34:25;;;;;;;38.65;14.30;;;;;;;;;;5033399;28;20052;-58
2021/12/14 02:36:52;;;;;;;50.92;14.40;;;;;;;;;;5032619;28;20488;-58
2021/12/14 02:42:09;;;;;;;42.78;15.23;;;;;;;;;;5027115;28;20029;-58
2021/12/14 02:44:35;;;;;;;40.35;16.85;;;;;;;;;;5033179;28;20037;-56
2021/12/14 02:47:07;;;;;;;49.65;16.50;;;;;;;;;;5029423;28;20038;-57
2021/12/14 02:49:35;;;;;;;51.58;16.85;;;;;;;;;;5031736;28;20060;-57
2021/12/14 02:52:14;;;;;;;42.50;15.85;;;;;;;;;;5034296;28;20095;-57
2021/12/14 02:54:46;;;;;;;46.58;17.98;;;;;;;;;;5036112;28;20036;-58
2021/12/14 02:57:17;;;;;;;46.50;17.77;;;;;;;;;;5034851;28;20048;-56
2021/12/14 02:59:44;;;;;;;55.53;17.13;;;;;;;;;;5027995;28;20029;-57
2021/12/14 03:02:13;;;;;;;56.15;18.48;;;;;;;;;;5031544;28;20033;-57
2021/12/14 03:04:42;;;;;;;50.28;21.55;;;;;;;;;;5031469;28;20033;-57
2021/12/14 03:07:09;;;;;;;58.03;22.38;;;;;;;;;;5034954;28;20017;-57
2021/12/14 03:09:56;;;;;;;55.88;21.02;;;;;;;;;;5032452;28;20061;-57
2021/12/14 03:12:27;;;;;;;52.42;20.45;;;;;;;;;;5033231;28;20447;-58
2021/12/14 03:14:59;;;;;;;50.75;21.20;;;;;;;;;;5030746;28;20399;-58
2021/12/14 03:17:25;;;;;;;57.47;22.13;;;;;;;;;;5030678;28;20591;-56
2021/12/14 03:20:04;;;;;;;61.95;23.98;;;;;;;;;;5030377;28;20056;-57
2021/12/14 03:22:38;;;;;;;54.38;22.80;;;;;;;;;;5035467;28;20040;-57
2021/12/14 03:25:06;;;;;;;57.78;21.83;;;;;;;;;;5035642;28;20127;-56
2021/12/14 03:27:37;;;;;;;64.28;23.77;;;;;;;;;;5035393;28;20120;-57
2021/12/14 03:30:12;;;;;;;51.63;21.80;;;;;;;;;;5030536;28;22685;-56
2021/12/14 03:32:37;;;;;;;57.00;21.08;;;;;;;;;;5035150;28;20179;-58
2021/12/14 03:35:04;;;;;;;51.05;22.98;;;;;;;;;;5037629;28;20563;-58
2021/12/14 03:37:30;;;;;;;45.22;20.88;;;;;;;;;;5033462;28;20045;-57
2021/12/14 03:39:59;;;;;;;58.80;22.70;;;;;;;;;;5032509;28;20438;-57
2021/12/14 03:42:37;;;;;;;48.08;20.70;;;;;;;;;;5033750;28;20032;-57
2021/12/14 03:45:07;;;;;;;58.65;20.40;;;;;;;;;;5035361;28;20028;-57
2021/12/14 03:47:36;;;;;;;45.45;19.08;;;;;;;;;;5033488;28;20108;-56
2021/12/14 03:50:22;;;;;;;55.00;19.60;;;;;;;;;;5031390;28;20041;-58
2021/12/14 03:52:47;;;;;;;52.05;19.25;;;;;;;;;;5037304;28;20424;-56
2021/12/14 03:55:35;;;;;;;45.13;18.20;;;;;;;;;;5029849;28;20045;-56
2021/12/14 03:58:01;;;;;;;42.92;18.60;;;;;;;;;;5036769;28;20048;-57
2021/12/14 04:00:34;;;;;;;42.63;18.20;;;;;;;;;;5035474;28;20037;-57
2021/12/14 04:03:05;;;;;;;51.38;19.17;;;;;;;;;;5036083;28;20043;-57
2021/12/14 04:05:30;;;;;;;46.95;19.15;;;;;;;;;;5026920;28;20033;-57
2021/12/14 04:07:56;;;;;;;49.08;18.23;;;;;;;;;;5028534;28;20083;-57
2021/12/14 04:10:27;;;;;;;38.05;18.63;;;;;;;;;;5030832;28;20167;-58
2021/12/14 04:12:53;;;;;;;49.92;18.90;;;;;;;;;;5045309;28;20451;-56
2021/12/14 04:15:20;;;;;;;44.55;18.30;;;;;;;;;;5024273;28;20120;-55
2021/12/14 04:17:46;;;;;;;45.90;17.88;;;;;;;;;;5029892;28;20310;-57
2021/12/14 04:20:23;;;;;;;39.03;17.52;;;;;;;;;;5027944;28;20024;-56
2021/12/14 04:22:49;;;;;;;49.35;18.05;;;;;;;;;;5028740;28;20041;-57
2021/12/14 04:25:34;;;;;;;39.45;18.10;;;;;;;;;;5029798;28;20048;-57
2021/12/14 04:28:06;;;;;;;41.50;18.50;;;;;;;;;;5034842;28;20121;-55
2021/12/14 04:30:31;;;;;;;43.42;17.17;;;;;;;;;;5032413;28;20040;-57
2021/12/14 04:33:01;;;;;;;40.67;17.05;;;;;;;;;;5030405;28;20048;-57
2021/12/14 04:35:30;;;;;;;40.17;17.05;;;;;;;;;;5035046;28;20026;-58
2021/12/14 04:37:58;;;;;;;45.85;17.50;;;;;;;;;;5031418;28;20116;-57
2021/12/14 04:54:03;;;;;;;32.08;13.95;;;;;;;;;;5031759;28;20036;-57
2021/12/14 04:56:40;;;;;;;29.35;14.02;;;;;;;;;;5027825;28;20404;-56
2021/12/14 04:59:16;;;;;;;24.92;13.18;;;;;;;;;;5031064;28;20052;-58
2021/12/14 05:01:44;;;;;;;30.88;13.68;;;;;;;;;;5030786;28;20550;-55
2021/12/14 05:04:15;;;;;;;23.77;11.98;;;;;;;;;;5028298;28;20047;-57
2021/12/14 05:06:54;;;;;;;30.67;14.02;;;;;;;;;;5034137;28;20051;-56
2021/12/14 05:09:36;;;;;;;33.63;14.02;;;;;;;;;;5028334;28;20110;-57
2021/12/14 05:12:09;;;;;;;30.95;14.60;;;;;;;;;;5028707;28;20243;-57
2021/12/14 05:14:36;;;;;;;39.17;14.88;;;;;;;;;;5034300;28;20043;-57
2021/12/14 05:17:06;;;;;;;29.50;12.23;;;;;;;;;;5028024;28;20121;-57
2021/12/14 05:19:35;;;;;;;35.72;13.18;;;;;;;;;;5033099;28;20025;-57
2021/12/14 05:22:16;;;;;;;30.52;12.93;;;;;;;;;;5030589;28;20314;-57
2021/12/14 05:24:47;;;;;;;31.15;11.73;;;;;;;;;;5032332;28;20503;-57
2021/12/14 05:27:17;;;;;;;33.27;12.87;;;;;;;;;;5029582;28;20036;-57
2021/12/14 05:29:43;;;;;;;31.58;13.60;;;;;;;;;;5033360;28;20506;-57
2021/12/14 05:32:10;;;;;;;25.35;11.75;;;;;;;;;;5039341;28;20036;-58
2021/12/14 05:34:38;;;;;;;29.27;10.85;;;;;;;;;;5030197;28;20449;-58
2021/12/14 05:37:06;;;;;;;25.88;10.40;;;;;;;;;;5035534;28;20041;-58
2021/12/14 05:39:46;;;;;;;30.27;11.90;;;;;;;;;;5031376;28;20033;-57
2021/12/14 05:45:03;;;;;;;28.77;10.55;;;;;;;;;;5031004;28;20544;-57
2021/12/14 05:47:29;;;;;;;24.53;10.20;;;;;;;;;;5025538;28;20506;-56
2021/12/14 05:49:55;;;;;;;20.45;8.48;;;;;;;;;;5030524;28;20040;-56
2021/12/14 05:52:26;;;;;;;19.50;8.98;;;;;;;;;;5038476;28;20724;-58
2021/12/14 05:54:57;;;;;;;31.90;10.23;;;;;;;;;;5035945;28;20500;-58
2021/12/14 05:57:25;;;;;;;19.05;7.70;;;;;;;;;;5029507;28;20456;-56
2021/12/14 05:59:52;;;;;;;14.98;6.93;;;;;;;;;;5032921;28;20572;-58
2021/12/14 06:02:19;;;;;;;15.30;5.60;;;;;;;;;;5032278;28;20064;-58
2021/12/14 06:04:50;;;;;;;12.27;4.50;;;;;;;;;;5034537;28;20037;-58
2021/12/14 06:07:19;;;;;;;12.27;4.32;;;;;;;;;;5032991;28;20017;-58
2021/12/14 06:09:48;;;;;;;8.65;3.38;;;;;;;;;;5033618;28;20131;-58
2021/12/14 06:12:29;;;;;;;9.13;3.80;;;;;;;;;;5031142;28;20033;-57
2021/12/14 06:14:58;;;;;;;8.25;3.45;;;;;;;;;;5033342;28;20423;-57
2021/12/14 06:17:33;;;;;;;13.77;3.50;;;;;;;;;;5030107;28;20124;-56
2021/12/14 06:20:12;;;;;;;6.93;2.72;;;;;;;;;;5035098;28;20029;-56
2021/12/14 06:22:40;;;;;;;9.90;4.07;;;;;;;;;;5036137;28;20032;-57
2021/12/14 06:25:12;;;;;;;9.57;2.97;;;;;;;;;;5036363;28;20507;-57
2021/12/14 06:27:38;;;;;;;;;;;;;;;;;;5036131;28;20029;-58
2021/12/14 06:30:16;;;;;;;7.05;2.83;;;;;;;;;;5031738;28;20371;-57
2021/12/14 06:32:52;;;;;;;10.57;4.05;;;;;;;;;;5036470;28;20103;-57
2021/12/14 06:35:29;;;;;;;10.27;3.45;;;;;;;;;;5037175;28;20407;-58
2021/12/14 06:40:46;;;;;;;11.77;4.13;;;;;;;;;;5031092;28;20112;-58
2021/12/14 06:43:17;;;;;;;7.93;3.33;;;;;;;;;;5030032;28;20030;-58
2021/12/14 06:45:55;;;;;;;10.05;3.85;;;;;;;;;;5031337;28;20602;-58
2021/12/14 06:48:24;;;;;;;12.13;4.60;;;;;;;;;;5033043;28;20467;-56
2021/12/14 06:51:03;;;;;;;12.60;4.68;;;;;;;;;;5035148;28;20094;-57
2021/12/14 06:53:31;;;;;;;11.25;4.30;;;;;;;;;;5024309;28;20159;-57
2021/12/14 06:55:59;;;;;;;9.52;4.07;;;;;;;;;;5026593;28;20050;-57
2021/12/14 06:58:29;;;;;;;11.02;4.57;;;;;;;;;;5026987;28;20086;-57
2021/12/14 07:01:04;;;;;;;8.32;3.78;;;;;;;;;;5030127;28;20065;-58
2021/12/14 07:03:50;;;;;;;10.40;5.00;;;;;;;;;;5026930;28;20385;-58
2021/12/14 07:06:22;;;;;;;13.23;3.85;;;;;;;;;;5031036;28;20468;-58
2021/12/14 07:08:48;;;;;;;10.75;5.20;;;;;;;;;;5024688;28;20033;-58
2021/12/14 07:11:19;;;;;;;9.32;4.15;;;;;;;;;;5031075;28;20045;-58
2021/12/14 07:13:46;;;;;;;9.83;4.63;;;;;;;;;;5027879;28;20458;-58
2021/12/14 07:16:33;;;;;;;8.95;3.80;;;;;;;;;;5028613;28;20282;-58
2021/12/14 07:19:06;;;;;;;9.80;3.60;;;;;;;;;;5031529;28;20037;-58
2021/12/14 07:21:36;;;;;;;9.82;3.50;;;;;;;;;;5027188;28;20028;-58
2021/12/14 07:24:20;;;;;;;10.23;3.90;;;;;;;;;;5024017;28;20021;-57
2021/12/14 07:26:46;;;;;;;11.00;4.95;;;;;;;;;;5025701;28;20112;-58
2021/12/14 07:29:12;;;;;;;9.93;4.70;;;;;;;;;;5026140;28;20108;-56
2021/12/14 07:31:41;;;;;;;11.73;4.72;;;;;;;;;;5027051;28;20559;-58
2021/12/14 07:34:07;;;;;;;12.77;4.78;;;;;;;;;;5020086;28;20284;-57
2021/12/14 07:36:36;;;;;;;12.45;5.18;;;;;;;;;;5026567;28;20281;-58
2021/12/14 07:39:06;;;;;;;10.68;4.13;;;;;;;;;;5022236;28;20031;-58
2021/12/14 07:41:36;;;;;;;13.20;4.82;;;;;;;;;;5025005;28;20527;-58
2021/12/14 07:44:26;;;;;;;16.10;4.28;;;;;;;;;;5021658;28;20038;-57
2021/12/14 07:47:04;;;;;;;9.73;3.95;;;;;;;;;;5024399;28;20420;-57
2021/12/14 07:49:32;;;;;;;10.45;3.70;;;;;;;;;;5027647;28;20045;-58
2021/12/14 07:52:14;;;;;;;9.00;3.88;;;;;;;;;;5032409;28;20120;-58
2021/12/14 07:54:47;;;;;;;10.38;3.90;;;;;;;;;;5030527;28;20035;-58
2021/12/14 07:57:25;;;;;;;8.73;3.53;;;;;;;;;;5030853;28;20037;-57
2021/12/14 07:59:55;;;;;;;7.70;3.20;;;;;;;;;;5030821;28;20032;-58
2021/12/14 08:02:30;;;;;;;7.70;3.03;;;;;;;;;;5027899;28;20555;-58
2021/12/14 08:05:18;;;;;;;7.88;3.47;;;;;;;;;;5034484;28;20155;-58
2021/12/14 08:08:15;;;;;;;7.72;3.03;;;;;;;;;;5035648;28;20017;-58
2021/12/14 08:11:08;;;;;;;6.00;2.80;;;;;;;;;;5031065;28;20041;-58
2021/12/14 08:13:43;;;;;;;7.32;3.03;;;;;;;;;;5029729;28;20499;-58
2021/12/14 08:16:09;;;;;;;7.00;3.08;;;;;;;;;;5025001;28;20125;-58
2021/12/14 08:18:37;;;;;;;6.13;2.42;;;;;;;;;;5033039;28;20635;-54
2021/12/14 08:21:12;;;;;;;8.77;3.20;;;;;;;;;;5023608;28;20022;-59
2021/12/14 08:23:49;;;;;;;8.23;3.50;;;;;;;;;;5028648;28;20032;-59
2021/12/14 08:26:29;;;;;;;7.88;3.90;;;;;;;;;;5029329;28;20032;-58
2021/12/14 08:29:04;;;;;;;8.63;3.00;;;;;;;;;;5028528;28;20379;-58
2021/12/14 08:31:38;;;;;;;10.43;3.78;;;;;;;;;;5041987;28;20029;-58
2021/12/14 08:34:11;;;;;;;14.60;4.03;;;;;;;;;;5030602;28;20060;-58
2021/12/14 08:36:47;;;;;;;10.93;3.58;;;;;;;;;;5032082;28;20025;-58
2021/12/14 08:39:23;;;;;;;7.70;3.05;;;;;;;;;;5032950;28;20453;-58
2021/12/14 08:41:58;;;;;;;8.32;3.25;;;;;;;;;;5029532;28;20064;-58
2021/12/14 08:44:35;;;;;;;12.65;3.05;;;;;;;;;;5031495;28;20040;-58
2021/12/14 08:47:06;;;;;;;8.52;3.03;;;;;;;;;;5031022;28;20355;-60
2021/12/14 08:49:32;;;;;;;7.05;3.15;;;;;;;;;;5032744;28;20029;-59
2021/12/14 08:51:58;;;;;;;4.97;2.28;;;;;;;;;;5028044;28;20116;-59
2021/12/14 08:54:28;;;;;;;4.72;2.45;;;;;;;;;;5027725;28;20116;-59
2021/12/14 08:57:07;;;;;;;9.48;2.17;;;;;;;;;;5032319;28;20107;-59
2021/12/14 08:59:33;;;;;;;3.92;2.10;;;;;;;;;;5032782;28;20062;-59
2021/12/14 09:02:02;;;;;;;3.63;1.27;;;;;;;;;;5034778;28;20033;-59
2021/12/14 09:04:32;;;;;;;9.95;3.30;;;;;;;;;;5033052;28;20087;-59
2021/12/14 09:07:09;;;;;;;5.20;1.85;;;;;;;;;;5028655;28;20029;-58
2021/12/14 09:09:36;;;;;;;5.60;1.85;;;;;;;;;;5031620;28;20033;-59
2021/12/14 09:12:17;;;;;;;6.13;2.00;;;;;;;;;;5027759;28;20084;-59
2021/12/14 09:14:45;;;;;;;7.63;2.30;;;;;;;;;;5029483;28;20036;-59
2021/12/14 09:17:14;;;;;;;6.35;1.52;;;;;;;;;;5021743;28;20032;-59
2021/12/14 09:19:44;;;;;;;5.53;1.65;;;;;;;;;;5030039;28;20028;-59
2021/12/14 09:22:33;;;;;;;10.32;1.45;;;;;;;;;;5028715;28;20037;-59
2021/12/14 09:25:00;;;;;;;4.30;1.10;;;;;;;;;;5032459;28;20534;-58
2021/12/14 09:27:29;;;;;;;9.70;1.42;;;;;;;;;;5031440;28;20108;-59
2021/12/14 09:29:56;;;;;;;5.32;0.93;;;;;;;;;;5030535;28;20029;-58
2021/12/14 09:32:24;;;;;;;9.73;1.38;;;;;;;;;;5030510;28;20067;-59
2021/12/14 09:34:50;;;;;;;7.80;1.02;;;;;;;;;;5032858;28;20444;-59
2021/12/14 09:37:17;;;;;;;4.40;0.65;;;;;;;;;;5036840;28;20116;-58
2021/12/14 09:39:47;;;;;;;5.22;0.93;;;;;;;;;;5034958;28;20132;-57
2021/12/14 09:42:17;;;;;;;3.35;0.70;;;;;;;;;;5034184;28;20025;-59
2021/12/14 09:44:44;;;;;;;3.97;0.73;;;;;;;;;;5028836;28;20187;-59
2021/12/14 09:47:17;;;;;;;2.78;0.90;;;;;;;;;;5032071;28;20035;-58
2021/12/14 09:49:46;;;;;;;2.75;0.65;;;;;;;;;;5032018;28;20032;-58
2021/12/14 09:52:23;;;;;;;5.35;0.90;;;;;;;;;;5030657;28;20047;-58
2021/12/14 09:54:49;;;;;;;9.35;1.30;;;;;;;;;;5027996;28;20036;-58
2021/12/14 09:57:25;;;;;;;10.15;1.55;;;;;;;;;;5029332;28;20033;-59
2021/12/14 09:59:52;;;;;;;10.32;1.20;;;;;;;;;;5030942;28;20049;-58
2021/12/14 10:02:27;;;;;;;4.05;1.20;;;;;;;;;;5031327;28;20497;-58
2021/12/14 10:04:58;;;;;;;4.85;0.80;;;;;;;;;;5028185;28;20021;-59
2021/12/14 10:07:24;;;;;;;3.33;0.93;;;;;;;;;;5032453;28;20026;-59
2021/12/14 10:09:54;;;;;;;9.07;0.82;;;;;;;;;;5029629;28;20034;-58
2021/12/14 10:14:57;;;;;;;4.75;0.80;;;;;;;;;;5034313;28;20524;-59
2021/12/14 10:17:25;;;;;;;3.42;0.80;;;;;;;;;;5031877;28;20222;-59
2021/12/14 10:19:51;;;;;;;3.53;1.15;;;;;;;;;;5033482;28;20041;-59
2021/12/14 10:22:23;;;;;;;6.80;1.45;;;;;;;;;;5034808;28;20474;-59
2021/12/14 10:24:54;;;;;;;4.85;1.02;;;;;;;;;;5035934;28;20492;-59
2021/12/14 10:27:22;;;;;;;10.20;1.20;;;;;;;;;;5028058;28;20033;-59
2021/12/14 10:29:49;;;;;;;7.18;1.48;;;;;;;;;;5032764;28;20029;-59
2021/12/14 10:32:23;;;;;;;10.02;2.30;;;;;;;;;;5028843;28;20390;-59
2021/12/14 10:34:53;;;;;;;10.43;3.00;;;;;;;;;;5030757;28;20052;-59
2021/12/14 10:37:36;;;;;;;6.53;0.93;;;;;;;;;;5031552;28;20032;-59
2021/12/14 10:43:05;;;;;;;10.52;2.13;;;;;;;;;;5032996;28;19924;-57
2021/12/14 10:45:32;;;;;;;4.78;1.25;;;;;;;;;;5037087;28;20392;-59
2021/12/14 10:47:58;;;;;;;4.57;1.30;;;;;;;;;;5038330;28;20529;-58
2021/12/14 10:50:31;;;;;;;13.07;1.60;;;;;;;;;;5030003;28;20221;-58
2021/12/14 10:52:57;;;;;;;5.00;0.70;;;;;;;;;;5034761;28;20033;-58
2021/12/14 10:55:38;;;;;;;2.15;0.73;;;;;;;;;;5035637;28;20080;-58
2021/12/14 10:58:06;;;;;;;6.75;0.95;;;;;;;;;;5035372;28;20032;-58
2021/12/14 11:00:56;;;;;;;7.35;1.00;;;;;;;;;;5033660;28;20025;-58
2021/12/14 11:03:28;;;;;;;2.20;0.60;;;;;;;;;;5028137;28;20060;-58
2021/12/14 11:05:57;;;;;;;3.17;1.13;;;;;;;;;;5037946;28;20104;-58
2021/12/14 11:08:55;;;;;;;13.00;0.98;;;;;;;;;;5028768;28;20049;-60
2021/12/14 11:11:31;;;;;;;3.55;1.02;;;;;;;;;;5032087;28;20041;-57
2021/12/14 11:14:01;;;;;;;5.03;1.05;;;;;;;;;;5030979;28;20492;-58
2021/12/14 11:19:42;;;;;;;4.00;1.08;;;;;;;;;;5029184;28;20040;-59
2021/12/14 11:22:09;;;;;;;7.75;0.98;;;;;;;;;;5031049;28;20021;-59
2021/12/14 11:24:36;;;;;;;3.75;1.05;;;;;;;;;;5030482;28;20029;-60
2021/12/14 11:27:12;;;;;;;3.67;0.90;;;;;;;;;;5029693;28;20028;-60
2021/12/14 11:29:38;;;;;;;4.70;1.02;;;;;;;;;;5039134;28;20013;-59
2021/12/14 11:32:04;;;;;;;6.45;1.80;;;;;;;;;;5032107;28;20420;-57
2021/12/14 11:34:39;;;;;;;4.43;1.27;;;;;;;;;;5034461;28;20037;-57
2021/12/14 11:37:14;;;;;;;4.03;1.33;;;;;;;;;;5036090;28;20044;-58
2021/12/14 11:39:44;;;;;;;6.25;1.33;;;;;;;;;;5038526;28;20032;-58
2021/12/14 11:42:13;;;;;;;4.63;1.40;;;;;;;;;;5032131;28;20107;-58
2021/12/14 11:45:00;;;;;;;3.35;1.13;;;;;;;;;;5035175;28;20252;-59
2021/12/14 11:50:01;;;;;;;2.78;0.85;;;;;;;;;;5032905;28;20404;-59
2021/12/14 11:52:51;;;;;;;2.85;0.77;;;;;;;;;;5033536;28;20143;-59
2021/12/14 11:55:40;;;;;;;2.63;0.50;;;;;;;;;;5035936;28;20481;-57
2021/12/14 11:58:08;;;;;;;6.75;1.38;;;;;;;;;;5024802;28;20328;-57
2021/12/14 12:00:38;;;;;;;6.45;1.10;;;;;;;;;;5027696;28;20614;-58
2021/12/14 12:03:24;;;;;;;1.70;0.65;;;;;;;;;;5028531;28;20033;-58
2021/12/14 12:06:05;;;;;;;11.93;0.93;;;;;;;;;;5034111;28;20224;-57
2021/12/14 12:11:18;;;;;;;2.78;0.70;;;;;;;;;;5028400;28;20098;-58
2021/12/14 12:13:46;;;;;;;3.03;0.80;;;;;;;;;;5032065;28;20416;-58
2021/12/14 12:16:16;;;;;;;4.50;0.90;;;;;;;;;;5034035;28;20037;-58
2021/12/14 12:19:17;;;;;;;4.03;1.02;;;;;;;;;;5027822;28;20104;-58
2021/12/14 12:21:45;;;;;;;1.88;0.57;;;;;;;;;;5029344;28;20066;-59
2021/12/14 12:24:31;;;;;;;2.78;0.68;;;;;;;;;;5034304;28;20021;-57
2021/12/14 12:27:30;;;;;;;5.43;0.90;;;;;;;;;;5035404;28;20614;-59
2021/12/14 12:30:28;;;;;;;9.80;1.00;;;;;;;;;;5033678;28;20028;-58
2021/12/14 12:32:55;;;;;;;3.92;0.90;;;;;;;;;;5029054;28;20036;-58
2021/12/14 12:35:28;;;;;;;4.10;0.88;;;;;;;;;;5027801;28;20040;-58
2021/12/14 12:37:57;;;;;;;2.65;0.77;;;;;;;;;;5034531;28;20029;-58
2021/12/14 12:40:47;;;;;;;7.25;1.35;;;;;;;;;;5031659;28;20040;-56
2021/12/14 12:43:33;;;;;;;4.70;0.80;;;;;;;;;;5030559;28;20114;-58
2021/12/14 12:46:40;;;;;;;3.00;1.08;;;;;;;;;;5041162;28;20518;-60
2021/12/14 12:49:22;;;;;;;2.58;1.10;;;;;;;;;;5016427;28;20103;-58
2021/12/14 12:51:55;;;;;;;3.00;0.93;;;;;;;;;;5032922;28;20021;-59
2021/12/14 12:54:21;;;;;;;5.47;2.08;;;;;;;;;;5034401;28;20415;-59
2021/12/14 12:57:33;;;;;;;10.00;1.20;;;;;;;;;;5033468;28;20052;-59
2021/12/14 13:00:19;;;;;;;4.78;1.02;;;;;;;;;;5032396;28;20041;-59
2021/12/14 13:02:53;;;;;;;7.30;1.25;;;;;;;;;;5029001;28;20025;-59
2021/12/14 13:05:27;;;;;;;9.88;1.95;;;;;;;;;;5029589;28;20025;-59
2021/12/14 13:07:55;;;;;;;10.20;1.50;;;;;;;;;;5027145;28;20590;-59
2021/12/14 13:10:27;;;;;;;6.47;1.45;;;;;;;;;;5030326;28;20033;-58
2021/12/14 13:13:00;;;;;;;4.80;0.93;;;;;;;;;;5030153;28;20100;-59
2021/12/14 13:15:38;;;;;;;5.82;0.90;;;;;;;;;;5028838;28;20572;-59
2021/12/14 13:18:28;;;;;;;3.78;1.42;;;;;;;;;;5020903;28;20037;-59
2021/12/14 13:21:07;;;;;;;9.07;1.30;;;;;;;;;;5026726;28;20480;-59
2021/12/14 13:23:58;;;;;;;6.32;1.35;;;;;;;;;;5030313;28;20032;-59
2021/12/14 13:26:28;;;;;;;1.55;0.80;;;;;;;;;;5030818;28;20056;-58
2021/12/14 13:29:16;;;;;;;4.20;0.70;;;;;;;;;;5030506;28;20369;-59
2021/12/14 13:31:53;;;;;;;5.57;0.95;;;;;;;;;;5026123;28;20060;-58
2021/12/14 13:34:38;;;;;;;3.40;1.10;;;;;;;;;;5032649;28;20512;-58
2021/12/14 13:37:06;;;;;;;5.00;1.25;;;;;;;;;;5036797;28;20057;-58
2021/12/14 13:39:33;;;;;;;5.10;1.38;;;;;;;;;;5025606;28;20314;-58
2021/12/14 13:41:58;;;;;;;4.47;1.30;;;;;;;;;;5026967;28;20033;-59
2021/12/14 13:44:30;;;;;;;6.07;1.52;;;;;;;;;;5030279;28;20121;-59
2021/12/14 13:46:57;;;;;;;6.40;2.25;;;;;;;;;;5029912;28;20057;-58
2021/12/14 13:49:24;;;;;;;5.45;1.30;;;;;;;;;;5029077;28;20040;-59
2021/12/14 13:51:50;;;;;;;6.47;1.85;;;;;;;;;;5036021;28;20033;-56
2021/12/14 13:54:15;;;;;;;8.90;2.75;;;;;;;;;;5036621;28;20534;-59
2021/12/14 13:56:45;;;;;;;5.65;2.08;;;;;;;;;;5038577;28;20095;-58
2021/12/14 13:59:13;;;;;;;5.32;2.35;;;;;;;;;;5030789;28;20167;-59
2021/12/14 14:02:05;;;;;;;6.45;2.40;;;;;;;;;;5030992;28;20492;-59
2021/12/14 14:04:34;;;;;;;5.32;2.05;;;;;;;;;;5030721;28;20057;-58
2021/12/14 14:07:00;;;;;;;5.10;1.75;;;;;;;;;;5048944;28;20507;-59
2021/12/14 14:09:28;;;;;;;3.50;1.73;;;;;;;;;;5031791;28;20594;-58
2021/12/14 14:12:12;;;;;;;7.55;2.63;;;;;;;;;;5031962;28;20670;-59
2021/12/14 14:14:39;;;;;;;6.68;2.55;;;;;;;;;;5030631;28;20038;-58
2021/12/14 14:17:29;;;;;;;8.07;2.72;;;;;;;;;;5032360;28;20028;-60
2021/12/14 14:20:02;;;;;;;8.02;2.40;;;;;;;;;;5033866;28;20037;-59
2021/12/14 14:22:46;;;;;;;9.95;3.00;;;;;;;;;;5035846;28;20204;-60
2021/12/14 14:25:26;;;;;;;8.23;2.67;;;;;;;;;;5037854;28;20031;-59
2021/12/14 14:27:56;;;;;;;4.20;2.40;;;;;;;;;;5036430;28;20040;-60
2021/12/14 14:30:42;;;;;;;12.77;3.10;;;;;;;;;;5035321;28;20611;-60
2021/12/14 14:33:45;;;;;;;6.43;2.53;;;;;;;;;;5038531;28;20036;-61
2021/12/14 14:36:29;;;;;;;8.30;2.40;;;;;;;;;;5038435;28;20052;-59
2021/12/14 14:39:19;;;;;;;5.63;2.45;;;;;;;;;;5035758;28;20742;-59
2021/12/14 14:41:57;;;;;;;8.13;3.30;;;;;;;;;;5037107;28;20505;-59
2021/12/14 14:44:26;;;;;;;6.80;2.92;;;;;;;;;;5040679;28;20521;-59
2021/12/14 14:47:00;;;;;;;5.50;2.38;;;;;;;;;;5032866;28;20048;-60
2021/12/14 14:49:46;;;;;;;8.52;2.88;;;;;;;;;;5034548;28;20630;-59
2021/12/14 14:52:18;;;;;;;8.52;2.85;;;;;;;;;;5031124;28;20164;-61
2021/12/14 14:54:47;;;;;;;8.95;2.80;;;;;;;;;;5031286;28;20032;-58
2021/12/14 14:57:32;;;;;;;7.13;2.85;;;;;;;;;;5038073;28;20598;-59
2021/12/14 14:59:58;;;;;;;10.35;3.53;;;;;;;;;;5031262;28;20067;-59
2021/12/14 15:02:38;;;;;;;9.50;3.40;;;;;;;;;;5033541;28;20475;-58
2021/12/14 15:05:13;;;;;;;7.45;2.97;;;;;;;;;;5030711;28;20048;-58
2021/12/14 15:07:56;;;;;;;6.68;3.38;;;;;;;;;;5030438;28;20365;-59
2021/12/14 15:10:34;;;;;;;10.88;3.05;;;;;;;;;;5031244;28;20557;-58
2021/12/14 15:13:27;;;;;;;6.70;2.75;;;;;;;;;;5034745;28;20033;-58
2021/12/14 15:16:22;;;;;;;8.30;2.50;;;;;;;;;;5031274;28;20048;-59
2021/12/14 15:19:24;;;;;;;6.95;1.90;;;;;;;;;;5034281;28;20191;-58
2021/12/14 15:22:08;;;;;;;10.13;3.72;;;;;;;;;;5020212;28;20045;-59
2021/12/14 15:24:54;;;;;;;6.15;2.38;;;;;;;;;;5033524;28;20565;-59
2021/12/14 15:27:28;;;;;;;12.57;4.40;;;;;;;;;;5031399;28;20550;-59
2021/12/14 15:30:02;;;;;;;6.63;2.80;;;;;;;;;;5032951;28;20035;-58
2021/12/14 15:32:35;;;;;;;9.32;2.75;;;;;;;;;;5033321;28;20042;-59
2021/12/14 15:35:18;;;;;;;7.45;2.40;;;;;;;;;;5036855;28;20501;-57
2021/12/14 15:37:58;;;;;;;7.60;3.30;;;;;;;;;;5026518;28;20029;-58
2021/12/14 15:40:24;;;;;;;10.52;2.75;;;;;;;;;;5026564;28;20029;-58
2021/12/14 15:42:55;;;;;;;8.45;2.92;;;;;;;;;;5030488;28;20771;-59
2021/12/14 15:45:38;;;;;;;8.33;2.37;;;;;;;;;;5026429;28;20028;-59
2021/12/14 15:48:15;;;;;;;8.82;3.50;;;;;;;;;;5029583;28;20273;-59
2021/12/14 15:51:02;;;;;;;8.60;3.00;;;;;;;;;;5032480;28;20061;-58
2021/12/14 15:53:33;;;;;;;9.82;2.60;;;;;;;;;;5031454;28;20120;-58